Time;durP1;ratioP1;P1;durP2;ratioP2;P2;SDS_P1;SDS_P2;PMS_P1;PMS_P2;Temp;Humidity;BMP_temperature;BMP_pressure;BME280_temperature;BME280_humidity;BME280_pressure;Samples;Min_cycle;Max_cycle;Signal;HPM_P1;HPM_P2
2021/07/26 00:01:57;;;;;;;11.65;5.80;;;;;;;15.49;100.00;96350.56;5062490;28;20131;-62
2021/07/26 00:04:23;;;;;;;16.35;5.25;;;;;;;15.45;100.00;96354.56;5055763;28;20051;-62
2021/07/26 00:06:49;;;;;;;11.10;4.85;;;;;;;15.39;100.00;96354.19;5063095;28;20041;-61
2021/07/26 00:09:14;;;;;;;14.35;4.53;;;;;;;15.55;100.00;96358.41;5059613;28;20554;-62
2021/07/26 00:11:39;;;;;;;14.82;4.95;;;;;;;15.80;100.00;96363.72;5066320;28;20041;-62
2021/07/26 00:14:05;;;;;;;8.73;4.90;;;;;;;15.88;100.00;96361.66;5065020;28;20045;-63
2021/07/26 00:16:30;;;;;;;9.73;4.28;;;;;;;15.86;100.00;96365.63;5068515;28;20634;-61
2021/07/26 00:18:56;;;;;;;10.27;4.60;;;;;;;15.84;100.00;96373.53;5042403;28;20048;-61
2021/07/26 00:21:21;;;;;;;11.65;4.18;;;;;;;15.95;100.00;96364.34;5036499;28;20568;-61
2021/07/26 00:23:46;;;;;;;11.10;4.13;;;;;;;16.04;100.00;96364.66;5039951;28;20037;-61
2021/07/26 00:26:13;;;;;;;10.57;5.88;;;;;;;15.95;100.00;96361.59;5034480;28;20128;-60
2021/07/26 00:28:39;;;;;;;9.60;4.32;;;;;;;15.81;100.00;96348.72;5040641;28;20448;-62
2021/07/26 00:31:04;;;;;;;9.07;3.85;;;;;;;15.93;100.00;96350.94;5049387;28;20041;-62
2021/07/26 00:34:07;;;;;;;18.80;4.30;;;;;;;16.01;100.00;96346.94;5060988;28;20033;-62
2021/07/26 00:36:34;;;;;;;11.90;4.03;;;;;;;16.17;100.00;96340.84;5057524;28;20102;-62
2021/07/26 00:39:00;;;;;;;12.63;4.20;;;;;;;16.22;100.00;96347.88;5062012;28;20110;-62
2021/07/26 00:41:26;;;;;;;9.45;3.55;;;;;;;16.33;100.00;96345.00;5056330;28;20123;-61
2021/07/26 00:43:52;;;;;;;9.73;4.00;;;;;;;16.24;100.00;96348.25;5076699;28;20121;-63
2021/07/26 00:46:17;;;;;;;8.85;4.45;;;;;;;16.03;100.00;96344.53;5069383;28;20083;-62
2021/07/26 00:48:43;;;;;;;9.57;4.63;;;;;;;15.90;100.00;96342.72;5071085;28;20063;-61
2021/07/26 00:51:09;;;;;;;9.82;4.60;;;;;;;15.78;100.00;96338.50;5050134;28;20071;-61
2021/07/26 00:53:35;;;;;;;14.00;4.82;;;;;;;15.81;100.00;96343.19;5057652;28;20122;-62
2021/07/26 00:56:01;;;;;;;7.72;4.03;;;;;;;15.85;100.00;96339.19;5054699;28;20067;-62
2021/07/26 00:58:26;;;;;;;6.72;4.40;;;;;;;15.83;100.00;96346.34;5064498;28;20040;-62
2021/07/26 01:00:52;;;;;;;11.15;5.13;;;;;;;15.81;100.00;96348.72;5070679;28;20039;-62
2021/07/26 01:03:17;;;;;;;8.60;4.85;;;;;;;15.81;100.00;96343.19;5071674;28;20051;-63
2021/07/26 01:05:43;;;;;;;10.88;5.43;;;;;;;15.84;100.00;96345.91;5064331;28;20058;-62
2021/07/26 01:08:08;;;;;;;9.65;4.88;;;;;;;15.85;100.00;96346.72;5058035;28;20070;-61
2021/07/26 01:10:33;;;;;;;11.52;5.05;;;;;;;15.82;100.00;96339.25;5073116;28;20375;-61
2021/07/26 01:12:59;;;;;;;11.98;5.18;;;;;;;15.78;100.00;96333.75;5078116;28;20097;-61
2021/07/26 01:15:24;;;;;;;10.27;5.40;;;;;;;15.80;100.00;96338.88;5046166;28;20049;-61
2021/07/26 01:18:29;;;;;;;8.30;4.97;;;;;;;15.85;100.00;96341.19;5058075;28;20102;-60
2021/07/26 01:20:58;;;;;;;8.95;5.07;;;;;;;15.91;100.00;96355.34;5045681;28;20044;-61
2021/07/26 01:23:25;;;;;;;9.95;4.82;;;;;;;15.91;100.00;96349.81;5058023;28;20845;-60
2021/07/26 01:25:51;;;;;;;10.77;4.63;;;;;;;15.91;100.00;96358.09;5051077;28;20174;-59
2021/07/26 01:28:19;;;;;;;8.20;5.00;;;;;;;15.91;100.00;96350.59;5048303;28;20045;-61
2021/07/26 01:30:46;;;;;;;9.25;4.70;;;;;;;16.02;100.00;96356.00;5071618;28;20413;-61
2021/07/26 01:33:13;;;;;;;7.80;4.70;;;;;;;16.08;100.00;96361.84;5064053;28;20139;-60
2021/07/26 01:35:39;;;;;;;6.63;4.35;;;;;;;16.08;100.00;96376.47;5062897;28;20083;-62
2021/07/26 01:38:05;;;;;;;7.68;4.25;;;;;;;16.18;100.00;96377.53;5052171;28;20516;-61
2021/07/26 01:40:34;;;;;;;9.88;4.60;;;;;;;16.18;100.00;96381.06;5066542;28;20051;-61
2021/07/26 01:43:04;;;;;;;5.75;3.50;;;;;;;16.22;100.00;96381.84;5080478;28;20051;-61
2021/07/26 01:45:30;;;;;;;;;;;;;;;16.25;100.00;96394.03;5071515;28;20060;-60
2021/07/26 01:48:02;;;;;;;6.13;3.95;;;;;;;16.28;100.00;96407.03;5059784;28;19923;-63
2021/07/26 01:50:34;;;;;;;6.25;3.83;;;;;;;16.22;100.00;96409.47;5036392;28;20084;-62
2021/07/26 01:53:00;;;;;;;7.68;3.75;;;;;;;16.30;100.00;96407.41;5070884;28;20036;-60
2021/07/26 01:55:25;;;;;;;6.38;3.38;;;;;;;16.42;100.00;96406.06;5053529;28;20503;-60
2021/07/26 01:57:51;;;;;;;8.23;3.92;;;;;;;16.32;100.00;96407.78;5042404;28;20045;-59
2021/07/26 02:00:17;;;;;;;6.45;4.07;;;;;;;16.28;100.00;96406.25;5055310;28;20076;-63
2021/07/26 02:02:42;;;;;;;11.15;4.68;;;;;;;16.38;100.00;96405.34;5055507;28;20107;-61
2021/07/26 02:05:09;;;;;;;6.63;3.88;;;;;;;16.41;100.00;96407.28;5060900;28;20042;-63
2021/07/26 02:07:35;;;;;;;11.43;3.75;;;;;;;16.48;100.00;96407.22;5058785;28;20129;-62
2021/07/26 02:10:00;;;;;;;11.73;4.45;;;;;;;16.48;100.00;96414.72;5070360;28;20100;-63
2021/07/26 02:12:26;;;;;;;12.77;4.13;;;;;;;16.33;100.00;96417.66;5083973;28;20059;-63
2021/07/26 02:14:51;;;;;;;16.40;4.95;;;;;;;16.09;100.00;96413.94;5081254;28;20043;-63
2021/07/26 02:17:16;;;;;;;12.13;4.43;;;;;;;15.90;100.00;96403.47;5056145;28;20183;-61
2021/07/26 02:19:42;;;;;;;11.18;4.53;;;;;;;15.84;100.00;96401.13;5067855;28;20049;-61
2021/07/26 02:22:07;;;;;;;9.18;4.65;;;;;;;15.83;100.00;96394.06;5066884;28;20044;-61
2021/07/26 02:24:33;;;;;;;10.73;4.40;;;;;;;16.05;100.00;96391.88;5074487;28;20044;-62
2021/07/26 02:26:58;;;;;;;10.30;4.55;;;;;;;16.38;100.00;96400.59;5070926;28;20046;-62
2021/07/26 02:29:23;;;;;;;8.48;4.25;;;;;;;16.39;100.00;96399.41;5074246;28;20510;-62
2021/07/26 02:31:49;;;;;;;10.50;4.93;;;;;;;16.28;100.00;96397.94;5069905;28;20037;-61
2021/07/26 02:34:15;;;;;;;11.38;4.55;;;;;;;16.28;100.00;96398.75;5058297;28;20032;-61
2021/07/26 02:36:40;;;;;;;10.70;4.50;;;;;;;16.42;100.00;96404.13;5060481;28;20032;-61
2021/07/26 02:39:06;;;;;;;7.63;4.63;;;;;;;16.48;100.00;96400.91;5062310;28;20036;-64
2021/07/26 02:41:31;;;;;;;11.73;4.97;;;;;;;16.42;100.00;96395.81;5077349;28;20488;-63
2021/07/26 02:43:57;;;;;;;12.13;5.32;;;;;;;16.35;100.00;96395.09;5078678;28;20039;-62
2021/07/26 02:46:22;;;;;;;10.77;5.38;;;;;;;16.34;100.00;96397.09;5058559;28;20270;-63
2021/07/26 02:48:48;;;;;;;10.40;5.35;;;;;;;16.35;100.00;96389.56;5064911;28;20048;-62
2021/07/26 02:51:14;;;;;;;6.85;4.65;;;;;;;16.26;100.00;96395.63;5058641;28;20063;-63
2021/07/26 02:53:41;;;;;;;14.55;5.57;;;;;;;16.23;100.00;96390.91;5078441;28;20044;-62
2021/07/26 02:56:08;;;;;;;11.00;5.75;;;;;;;16.02;100.00;96398.22;5055951;28;20045;-64
2021/07/26 02:58:33;;;;;;;15.48;5.72;;;;;;;15.92;100.00;96401.06;5065628;28;20467;-62
2021/07/26 03:00:59;;;;;;;12.35;6.53;;;;;;;16.14;100.00;96396.91;5091000;28;20044;-62
2021/07/26 03:03:24;;;;;;;18.30;5.47;;;;;;;16.38;100.00;96408.88;5079891;28;20048;-64
2021/07/26 03:05:49;;;;;;;13.23;4.97;;;;;;;16.34;100.00;96396.31;5082284;28;20116;-64
2021/07/26 03:08:15;;;;;;;12.65;5.30;;;;;;;16.29;100.00;96394.78;5063771;28;20497;-64
2021/07/26 03:10:40;;;;;;;12.90;5.90;;;;;;;16.00;100.00;96386.78;5078178;28;20045;-64
2021/07/26 03:13:06;;;;;;;11.98;6.20;;;;;;;15.90;100.00;96381.38;5073554;28;20036;-62
2021/07/26 03:15:31;;;;;;;14.38;6.07;;;;;;;15.88;100.00;96386.53;5074821;28;20130;-64
2021/07/26 03:17:56;;;;;;;10.25;6.00;;;;;;;15.95;100.00;96383.69;5076944;28;20047;-63
2021/07/26 03:20:22;;;;;;;10.95;5.70;;;;;;;16.02;100.00;96384.41;5074668;28;20519;-61
2021/07/26 03:22:58;;;;;;;12.25;5.28;;;;;;;16.03;100.00;96379.69;5069071;28;20064;-64
2021/07/26 03:25:24;;;;;;;7.82;4.90;;;;;;;16.15;100.00;96375.59;5043215;28;20238;-62
2021/07/26 03:27:50;;;;;;;10.07;5.53;;;;;;;16.31;100.00;96366.72;5063729;28;20036;-62
2021/07/26 03:30:17;;;;;;;11.98;5.72;;;;;;;16.35;100.00;96362.75;5071948;28;20047;-62
2021/07/26 03:32:43;;;;;;;13.65;5.43;;;;;;;16.42;100.00;96359.09;5063296;28;20611;-63
2021/07/26 03:35:09;;;;;;;10.40;4.63;;;;;;;16.44;100.00;96351.19;5071075;28;20177;-63
2021/07/26 03:37:34;;;;;;;9.18;5.50;;;;;;;16.43;100.00;96350.38;5081299;28;20127;-63
2021/07/26 03:40:00;;;;;;;6.85;4.75;;;;;;;16.41;100.00;96347.25;5064109;28;20044;-63
2021/07/26 03:42:25;;;;;;;13.30;5.32;;;;;;;16.21;100.00;96338.03;5074349;28;20059;-64
2021/07/26 03:44:51;;;;;;;12.55;6.95;;;;;;;15.93;100.00;96336.38;5082823;28;20131;-64
2021/07/26 03:47:16;;;;;;;16.63;6.95;;;;;;;15.77;100.00;96323.91;5061726;28;20128;-63
2021/07/26 03:49:41;;;;;;;24.50;7.85;;;;;;;15.65;100.00;96316.91;5070820;28;20036;-63
2021/07/26 03:52:07;;;;;;;15.57;7.65;;;;;;;15.56;100.00;96311.06;5057492;28;20040;-62
2021/07/26 03:54:33;;;;;;;12.52;7.07;;;;;;;15.56;100.00;96304.78;5062244;28;20040;-63
2021/07/26 03:56:58;;;;;;;16.38;8.30;;;;;;;15.64;100.00;96306.25;5060113;28;20048;-63
2021/07/26 03:59:25;;;;;;;15.27;7.88;;;;;;;15.89;100.00;96317.06;5069522;28;20036;-61
2021/07/26 04:01:55;;;;;;;13.35;7.50;;;;;;;16.04;100.00;96324.03;5066551;28;20040;-63
2021/07/26 04:04:20;;;;;;;11.45;7.18;;;;;;;16.12;100.00;96332.22;5068899;28;20036;-60
2021/07/26 04:06:50;;;;;;;13.52;7.30;;;;;;;16.08;100.00;96331.47;5077109;28;20037;-63
2021/07/26 04:09:15;;;;;;;15.30;7.68;;;;;;;16.03;100.00;96332.72;5053325;28;20031;-62
2021/07/26 04:11:41;;;;;;;11.35;7.07;;;;;;;16.08;100.00;96334.22;5053856;28;20044;-62
2021/07/26 04:14:09;;;;;;;13.63;7.03;;;;;;;16.12;100.00;96338.53;5050123;28;20071;-61
2021/07/26 04:16:34;;;;;;;10.75;6.55;;;;;;;16.17;100.00;96346.38;5059951;28;20449;-62
2021/07/26 04:19:01;;;;;;;12.45;7.78;;;;;;;16.14;100.00;96347.19;5054979;28;20128;-62
2021/07/26 04:21:31;;;;;;;15.23;7.38;;;;;;;16.10;100.00;96360.25;5068889;28;20142;-62
2021/07/26 04:23:58;;;;;;;10.32;6.72;;;;;;;16.09;100.00;96355.16;5064096;28;20074;-61
2021/07/26 04:26:24;;;;;;;16.17;7.40;;;;;;;16.09;100.00;96357.91;5056234;28;20571;-62
2021/07/26 04:28:49;;;;;;;15.90;6.88;;;;;;;16.09;100.00;96355.91;5071156;28;20413;-61
2021/07/26 04:31:15;;;;;;;12.50;7.15;;;;;;;16.27;100.00;96358.47;5058050;28;20127;-63
2021/07/26 04:33:40;;;;;;;10.77;7.15;;;;;;;16.40;100.00;96369.78;5061683;28;20049;-61
2021/07/26 04:36:05;;;;;;;16.10;7.57;;;;;;;16.46;100.00;96365.38;5058850;23;20457;-61
2021/07/26 04:38:31;;;;;;;11.18;7.03;;;;;;;16.48;100.00;96360.22;5050241;28;20048;-62
2021/07/26 04:40:57;;;;;;;18.58;7.88;;;;;;;16.52;100.00;96360.19;5058974;28;20041;-62
2021/07/26 04:43:23;;;;;;;14.38;7.20;;;;;;;16.14;100.00;96363.00;5046384;28;20530;-64
2021/07/26 04:45:48;;;;;;;16.33;7.50;;;;;;;16.09;100.00;96368.97;5035082;28;20124;-64
2021/07/26 04:48:14;;;;;;;13.32;7.47;;;;;;;16.08;100.00;96372.91;5021877;28;20132;-63
2021/07/26 04:50:39;;;;;;;22.75;8.10;;;;;;;16.02;100.00;96373.34;5031526;28;20045;-64
2021/07/26 04:53:05;;;;;;;21.30;8.45;;;;;;;16.04;100.00;96364.66;5025444;28;20072;-64
2021/07/26 04:55:30;;;;;;;16.40;9.02;;;;;;;15.91;100.00;96356.09;5040114;28;20057;-64
2021/07/26 04:57:55;;;;;;;18.55;8.70;;;;;;;15.89;100.00;96347.44;5017051;28;20045;-64
2021/07/26 05:00:21;;;;;;;22.25;9.77;;;;;;;15.84;100.00;96354.19;5017451;28;20048;-62
2021/07/26 05:02:46;;;;;;;22.33;10.52;;;;;;;15.93;100.00;96347.41;5031220;28;20045;-64
2021/07/26 05:05:12;;;;;;;22.83;10.32;;;;;;;16.09;100.00;96363.44;5034900;28;20068;-62
2021/07/26 05:07:37;;;;;;;28.05;9.77;;;;;;;16.13;100.00;96361.41;5037448;28;20485;-62
2021/07/26 05:10:04;;;;;;;17.02;9.38;;;;;;;16.03;100.00;96363.09;5029817;28;20033;-65
2021/07/26 05:12:29;;;;;;;17.67;8.82;;;;;;;16.15;100.00;96370.06;5037137;28;20098;-62
2021/07/26 05:14:55;;;;;;;15.05;8.60;;;;;;;16.09;100.00;96374.47;5009098;28;20037;-64
2021/07/26 05:17:23;;;;;;;18.77;9.57;;;;;;;15.95;100.00;96370.66;5026104;28;20069;-63
2021/07/26 05:19:49;;;;;;;16.77;9.80;;;;;;;15.95;100.00;96372.63;5016897;28;20474;-63
2021/07/26 05:22:15;;;;;;;19.48;10.45;;;;;;;15.90;100.00;96370.31;5019286;28;20047;-64
2021/07/26 05:24:40;;;;;;;18.77;11.27;;;;;;;15.91;100.00;96369.13;5020262;28;20041;-62
2021/07/26 05:27:07;;;;;;;23.33;11.15;;;;;;;15.90;100.00;96378.59;5021036;28;20573;-62
2021/07/26 05:29:33;;;;;;;19.33;11.18;;;;;;;15.91;100.00;96378.19;5034717;28;20040;-63
2021/07/26 05:31:59;;;;;;;17.85;9.75;;;;;;;16.04;100.00;96372.94;5033826;28;20314;-62
2021/07/26 05:34:24;;;;;;;17.45;10.30;;;;;;;16.25;100.00;96358.91;5033066;28;20767;-63
2021/07/26 05:36:50;;;;;;;19.15;9.98;;;;;;;16.16;100.00;96353.09;5031005;28;20047;-62
2021/07/26 05:39:16;;;;;;;17.17;9.90;;;;;;;16.32;100.00;96355.28;5023419;28;20454;-63
2021/07/26 05:41:42;;;;;;;18.17;10.23;;;;;;;17.01;100.00;96352.41;5031093;28;20050;-63
2021/07/26 05:44:07;;;;;;;12.13;8.35;;;;;;;17.86;100.00;96357.03;5022782;28;20048;-63
2021/07/26 05:46:32;;;;;;;16.50;8.18;;;;;;;18.37;100.00;96356.88;5020252;28;20349;-63
2021/07/26 05:48:58;;;;;;;18.63;8.18;;;;;;;18.78;99.61;96352.84;5026320;28;20053;-63
2021/07/26 05:51:23;;;;;;;11.73;6.72;;;;;;;19.47;94.84;96342.56;5023374;28;20048;-62
2021/07/26 05:53:49;;;;;;;10.60;6.38;;;;;;;19.69;95.18;96344.81;5037766;28;20037;-64
2021/07/26 05:56:14;;;;;;;9.02;6.18;;;;;;;20.92;88.58;96348.63;5009679;28;20522;-65
2021/07/26 05:58:46;;;;;;;9.32;5.57;;;;;;;22.15;79.75;96349.03;5035754;28;20094;-65
2021/07/26 06:03:47;;;;;;;7.72;4.93;;;;;;;23.81;73.45;96345.59;5006872;28;20045;-64
2021/07/26 06:06:12;;;;;;;6.30;4.43;;;;;;;24.78;66.90;96350.56;5024756;28;20486;-62
2021/07/26 06:08:37;;;;;;;9.45;5.25;;;;;;;23.54;73.19;96349.06;5029610;28;20048;-63
2021/07/26 06:11:03;;;;;;;10.48;4.82;;;;;;;23.83;70.57;96359.88;5030504;28;20048;-65
2021/07/26 06:13:29;;;;;;;9.52;4.13;;;;;;;24.65;67.41;96363.19;5028751;28;20045;-63
2021/07/26 06:15:55;;;;;;;13.63;5.63;;;;;;;22.59;75.07;96364.25;5014904;28;20110;-64
2021/07/26 06:18:20;;;;;;;8.18;4.32;;;;;;;20.31;85.67;96364.25;5027256;28;20045;-64
2021/07/26 06:20:46;;;;;;;7.65;4.22;;;;;;;21.17;83.41;96363.78;5039243;28;20045;-63
2021/07/26 06:23:11;;;;;;;7.35;4.53;;;;;;;20.18;87.20;96361.41;5030789;28;20080;-64
2021/07/26 06:25:37;;;;;;;8.38;4.20;;;;;;;20.83;86.27;96359.63;5034782;28;20125;-64
2021/07/26 06:28:02;;;;;;;7.80;3.90;;;;;;;20.43;86.68;96354.38;5017479;28;20037;-65
2021/07/26 06:30:28;;;;;;;6.57;3.83;;;;;;;21.05;85.89;96365.34;5017949;28;20037;-61
2021/07/26 06:32:53;;;;;;;6.78;3.35;;;;;;;21.22;82.94;96370.81;5021597;28;20045;-63
2021/07/26 06:35:19;;;;;;;10.07;3.50;;;;;;;21.16;80.93;96368.56;5023451;28;20041;-62
2021/07/26 06:37:45;;;;;;;5.82;3.53;;;;;;;21.30;82.56;96366.56;5025631;28;20049;-64
2021/07/26 06:40:11;;;;;;;7.20;3.13;;;;;;;22.79;77.52;96355.53;5037007;28;20596;-63
2021/07/26 06:42:36;;;;;;;6.93;3.53;;;;;;;22.29;76.46;96364.53;5026664;28;20140;-63
2021/07/26 06:45:03;;;;;;;5.70;2.85;;;;;;;21.48;79.50;96364.03;5031621;28;20436;-62
2021/07/26 06:47:28;;;;;;;6.38;3.20;;;;;;;21.20;80.75;96355.31;5008464;28;20437;-61
2021/07/26 06:49:53;;;;;;;5.80;2.65;;;;;;;22.81;73.43;96358.66;5030772;28;20045;-61
2021/07/26 06:52:19;;;;;;;7.28;2.67;;;;;;;24.00;69.05;96366.75;5015544;28;20086;-63
2021/07/26 06:54:44;;;;;;;5.00;2.50;;;;;;;24.69;63.48;96370.19;5031693;28;20099;-63
2021/07/26 06:57:09;;;;;;;5.22;2.45;;;;;;;24.45;64.42;96372.81;5029950;28;20041;-63
2021/07/26 06:59:35;;;;;;;5.85;3.85;;;;;;;23.09;69.37;96374.34;5034176;28;20115;-63
2021/07/26 07:02:00;;;;;;;5.78;3.95;;;;;;;21.95;73.47;96385.56;5040375;28;20049;-63
2021/07/26 07:04:26;;;;;;;6.00;2.60;;;;;;;23.51;69.78;96394.72;5020672;28;20132;-63
2021/07/26 07:06:51;;;;;;;9.57;2.25;;;;;;;25.82;62.03;96394.56;5023424;28;20086;-63
2021/07/26 07:09:16;;;;;;;5.40;2.40;;;;;;;27.02;55.40;96394.44;5022247;28;20045;-62
2021/07/26 07:11:42;;;;;;;4.65;1.83;;;;;;;27.40;53.76;96401.22;5033370;28;20052;-62
2021/07/26 07:14:07;;;;;;;3.33;2.05;;;;;;;28.20;51.45;96403.19;5030105;28;20053;-62
2021/07/26 07:16:32;;;;;;;5.82;2.10;;;;;;;26.09;54.03;96402.84;5032048;28;20195;-63
2021/07/26 07:18:58;;;;;;;4.20;2.10;;;;;;;26.04;55.65;96403.50;5033543;28;20044;-63
2021/07/26 07:21:28;;;;;;;3.85;2.00;;;;;;;25.99;56.22;96412.56;5028862;28;20554;-63
2021/07/26 07:23:55;;;;;;;4.70;2.42;;;;;;;25.86;55.25;96406.41;5031754;28;20129;-63
2021/07/26 07:26:22;;;;;;;4.25;2.45;;;;;;;25.90;55.78;96401.38;5028684;28;20068;-63
2021/07/26 07:28:49;;;;;;;5.38;2.45;;;;;;;25.48;58.04;96396.59;5038541;28;20525;-62
2021/07/26 07:31:16;;;;;;;6.13;3.00;;;;;;;25.31;59.03;96396.19;5024914;28;20114;-62
2021/07/26 07:33:42;;;;;;;5.90;3.05;;;;;;;24.01;63.76;96396.25;5039838;28;20124;-62
2021/07/26 07:36:08;;;;;;;4.78;2.67;;;;;;;24.32;62.95;96389.75;5016942;28;20047;-63
2021/07/26 07:38:34;;;;;;;6.35;2.95;;;;;;;22.73;67.55;96402.03;5035335;28;20401;-63
2021/07/26 07:41:00;;;;;;;3.97;2.63;;;;;;;23.73;63.01;96394.63;5030110;28;20060;-62
2021/07/26 07:43:27;;;;;;;4.38;2.50;;;;;;;23.65;66.92;96391.34;5020943;28;20046;-63
2021/07/26 07:45:54;;;;;;;4.07;2.50;;;;;;;22.13;70.82;96396.13;5021810;28;20510;-63
2021/07/26 07:48:20;;;;;;;4.93;3.15;;;;;;;23.75;66.98;96398.53;5017473;28;20134;-62
2021/07/26 07:50:46;;;;;;;6.13;2.65;;;;;;;24.85;62.33;96399.88;5033043;28;20382;-61
2021/07/26 07:53:11;;;;;;;4.63;2.60;;;;;;;25.47;60.54;96403.47;5034950;28;20044;-63
2021/07/26 07:55:37;;;;;;;4.45;2.67;;;;;;;26.08;58.46;96414.56;5023696;28;20513;-62
2021/07/26 07:58:05;;;;;;;3.75;2.35;;;;;;;26.33;54.94;96414.06;5019808;28;20037;-63
2021/07/26 08:00:30;;;;;;;4.55;2.38;;;;;;;26.29;54.25;96413.47;5033640;28;20520;-63
2021/07/26 08:02:56;;;;;;;4.20;2.45;;;;;;;25.53;57.93;96410.75;5029414;28;20049;-63
2021/07/26 08:05:21;;;;;;;5.10;3.05;;;;;;;25.92;56.78;96422.09;5025203;28;20801;-61
2021/07/26 08:07:47;;;;;;;9.45;2.65;;;;;;;24.98;60.23;96419.31;5030079;28;20128;-62
2021/07/26 08:10:14;;;;;;;3.65;2.00;;;;;;;25.82;56.83;96422.59;5025122;28;20120;-62
2021/07/26 08:12:40;;;;;;;3.67;2.40;;;;;;;25.64;57.07;96421.47;5023635;28;20470;-62
2021/07/26 08:15:06;;;;;;;8.23;2.50;;;;;;;24.76;62.01;96420.28;5031288;28;20064;-65
2021/07/26 08:17:32;;;;;;;4.68;2.38;;;;;;;25.56;60.09;96425.84;5031177;28;20045;-63
2021/07/26 08:19:57;;;;;;;4.68;2.40;;;;;;;25.10;60.69;96426.75;5027938;28;20052;-62
2021/07/26 08:22:23;;;;;;;5.70;2.55;;;;;;;25.29;59.78;96421.88;5023558;28;20672;-63
2021/07/26 08:24:48;;;;;;;4.43;2.00;;;;;;;25.46;59.17;96413.91;5020027;28;20045;-62
2021/07/26 08:27:13;;;;;;;4.35;2.45;;;;;;;25.18;58.55;96419.56;5015018;28;20451;-62
2021/07/26 08:29:39;;;;;;;4.47;2.55;;;;;;;25.61;58.19;96407.63;5026065;28;20041;-61
2021/07/26 08:32:04;;;;;;;4.10;2.28;;;;;;;25.41;59.07;96411.75;5037331;28;20044;-64
2021/07/26 08:34:30;;;;;;;4.72;2.20;;;;;;;25.54;60.30;96408.72;5030958;28;20528;-63
2021/07/26 08:36:55;;;;;;;6.68;2.45;;;;;;;25.67;60.27;96405.72;5038326;28;20053;-62
2021/07/26 08:39:21;;;;;;;5.30;2.70;;;;;;;25.53;60.33;96410.75;5024912;28;20041;-63
2021/07/26 08:41:47;;;;;;;7.10;2.75;;;;;;;24.95;61.22;96400.63;5020381;28;20642;-62
2021/07/26 08:44:12;;;;;;;4.97;2.63;;;;;;;25.02;61.47;96405.91;5016672;28;20098;-63
2021/07/26 08:46:42;;;;;;;5.80;2.63;;;;;;;25.44;60.70;96407.97;5021905;28;20049;-63
2021/07/26 08:49:07;;;;;;;4.88;2.83;;;;;;;25.51;60.66;96404.06;5027997;28;20699;-63
2021/07/26 08:51:33;;;;;;;4.00;2.30;;;;;;;25.81;59.71;96410.63;5033707;28;20041;-64
2021/07/26 08:54:00;;;;;;;4.70;2.65;;;;;;;25.10;58.63;96403.53;5038970;28;20431;-62
2021/07/26 08:56:26;;;;;;;4.07;2.53;;;;;;;24.50;59.73;96405.78;5035842;28;20047;-63
2021/07/26 08:58:51;;;;;;;4.25;2.45;;;;;;;25.42;57.96;96404.09;5040917;28;20037;-63
2021/07/26 09:01:17;;;;;;;7.35;2.50;;;;;;;26.41;56.38;96410.88;5035388;28;20072;-64
2021/07/26 09:03:42;;;;;;;4.85;2.30;;;;;;;26.80;53.39;96408.84;5037132;28;20169;-63
2021/07/26 09:06:08;;;;;;;5.78;3.10;;;;;;;25.34;57.85;96401.63;4981355;28;20041;-64
2021/07/26 09:08:35;;;;;;;4.03;2.63;;;;;;;23.87;62.29;96396.84;5020518;28;20184;-65
2021/07/26 09:11:02;;;;;;;6.40;2.70;;;;;;;24.97;60.60;96398.13;5033379;28;20044;-63
2021/07/26 09:13:36;;;;;;;5.00;3.50;;;;;;;23.46;63.63;96405.25;5012304;28;20045;-62
2021/07/26 09:16:18;;;;;;;4.95;2.60;;;;;;;23.19;64.35;96397.53;5037921;28;20041;-63
2021/07/26 09:18:45;;;;;;;5.90;2.65;;;;;;;21.88;65.44;96398.97;5035800;28;20087;-64
2021/07/26 09:21:10;;;;;;;3.80;2.53;;;;;;;22.14;66.21;96408.03;5030880;28;20076;-63
2021/07/26 09:23:39;;;;;;;4.10;2.50;;;;;;;22.65;64.01;96409.88;5031953;28;20100;-63
2021/07/26 09:26:27;;;;;;;4.95;2.60;;;;;;;22.98;63.13;96390.72;5025668;28;20521;-64
2021/07/26 09:28:53;;;;;;;4.45;2.58;;;;;;;23.99;59.64;96393.16;5014746;28;20547;-64
2021/07/26 09:31:18;;;;;;;5.35;2.50;;;;;;;22.73;65.38;96396.47;5033110;28;20048;-63
2021/07/26 09:33:44;;;;;;;4.40;2.67;;;;;;;24.45;59.87;96389.59;5036586;28;20059;-65
2021/07/26 09:36:19;;;;;;;4.85;2.47;;;;;;;23.68;60.13;96398.81;5020930;28;20112;-65
2021/07/26 09:38:55;;;;;;;4.03;2.40;;;;;;;24.96;55.83;96397.34;5032003;28;20563;-64
2021/07/26 09:41:45;;;;;;;4.15;2.50;;;;;;;25.84;54.38;96392.84;5027316;28;20490;-64
2021/07/26 09:44:12;;;;;;;4.35;2.50;;;;;;;23.99;59.39;96400.78;5032455;28;20045;-63
2021/07/26 09:46:43;;;;;;;7.50;3.03;;;;;;;25.86;54.50;96395.94;5020175;28;20047;-64
2021/07/26 09:49:10;;;;;;;9.30;2.55;;;;;;;26.57;52.38;96395.63;5032604;28;20041;-62
2021/07/26 09:51:37;;;;;;;4.72;2.50;;;;;;;27.96;49.06;96392.84;5042130;28;20423;-64
2021/07/26 09:54:03;;;;;;;4.82;2.25;;;;;;;28.53;46.88;96394.38;5039430;28;20080;-64
2021/07/26 09:56:33;;;;;;;6.47;2.50;;;;;;;29.14;45.94;96398.31;5021191;28;20658;-65
2021/07/26 09:59:01;;;;;;;5.30;2.22;;;;;;;27.20;49.41;96401.88;5038770;28;20045;-63
2021/07/26 10:01:27;;;;;;;4.55;2.58;;;;;;;26.74;51.63;96404.38;5032983;28;20041;-63
2021/07/26 10:03:53;;;;;;;8.57;4.68;;;;;;;25.98;53.39;96394.16;5031130;28;20049;-64
2021/07/26 10:06:19;;;;;;;6.57;2.85;;;;;;;25.60;54.42;96404.00;5028583;28;20123;-64
2021/07/26 10:08:46;;;;;;;4.28;2.75;;;;;;;26.43;51.20;96385.91;5038645;28;20057;-64
2021/07/26 10:11:13;;;;;;;4.45;2.95;;;;;;;26.99;51.48;96392.59;5039286;28;20423;-64
2021/07/26 10:13:42;;;;;;;4.20;2.35;;;;;;;28.75;46.86;96381.78;5041862;28;20045;-63
2021/07/26 10:16:18;;;;;;;4.32;2.40;;;;;;;26.69;51.73;96389.00;5039458;28;20037;-64
2021/07/26 10:18:48;;;;;;;3.70;2.20;;;;;;;27.92;48.38;96378.22;5042420;28;20055;-63
2021/07/26 10:21:19;;;;;;;4.20;2.30;;;;;;;25.70;53.14;96377.47;5037823;28;20041;-62
2021/07/26 10:23:50;;;;;;;4.28;2.40;;;;;;;24.74;56.39;96382.75;5037190;28;20098;-64
2021/07/26 10:26:17;;;;;;;5.25;2.55;;;;;;;24.49;58.08;96378.25;5034934;28;20040;-64
2021/07/26 10:28:51;;;;;;;5.07;3.72;;;;;;;26.60;52.82;96369.41;5044195;28;20041;-64
2021/07/26 10:31:29;;;;;;;4.10;2.83;;;;;;;26.84;52.49;96369.34;5036130;28;20072;-62
2021/07/26 10:34:08;;;;;;;6.28;3.50;;;;;;;26.75;53.05;96369.44;5041558;28;20124;-63
2021/07/26 10:36:39;;;;;;;4.50;3.47;;;;;;;26.95;51.51;96371.56;5039113;28;20041;-61
2021/07/26 10:39:05;;;;;;;5.93;2.38;;;;;;;26.57;50.68;96373.16;5036477;28;20041;-63
2021/07/26 10:41:42;;;;;;;5.82;4.28;;;;;;;26.80;54.98;96363.16;5043658;28;20105;-62
2021/07/26 10:44:09;;;;;;;4.22;3.00;;;;;;;25.71;58.24;96365.03;5033534;28;20776;-62
2021/07/26 10:46:53;;;;;;;6.88;4.22;;;;;;;25.81;58.67;96365.75;5038385;28;20049;-61
2021/07/26 10:49:36;;;;;;;11.77;10.25;;;;;;;25.65;60.21;96358.50;5040312;28;20037;-63
2021/07/26 10:52:02;;;;;;;8.57;4.70;;;;;;;26.11;57.39;96363.84;5039727;28;20075;-61
2021/07/26 10:54:34;;;;;;;6.35;3.05;;;;;;;25.60;59.65;96358.38;5041508;28;20073;-64
2021/07/26 10:57:00;;;;;;;5.22;2.88;;;;;;;26.05;58.96;96360.16;5039736;28;20094;-63
2021/07/26 10:59:25;;;;;;;5.53;2.90;;;;;;;26.43;58.89;96360.63;5037930;28;20045;-63
2021/07/26 11:02:04;;;;;;;5.72;3.05;;;;;;;26.50;57.03;96360.25;5026899;28;20528;-62
2021/07/26 11:04:37;;;;;;;4.47;2.50;;;;;;;26.75;57.72;96355.38;5040955;28;20059;-62
2021/07/26 11:07:04;;;;;;;8.32;4.15;;;;;;;26.75;55.79;96355.38;5036993;28;20363;-63
2021/07/26 11:09:34;;;;;;;4.82;2.85;;;;;;;26.56;56.49;96355.53;5042105;28;20535;-63
2021/07/26 11:12:02;;;;;;;4.53;2.60;;;;;;;26.62;56.40;96356.44;5045694;28;20044;-64
2021/07/26 11:14:28;;;;;;;8.85;3.40;;;;;;;26.39;58.46;96348.81;5038794;28;20378;-64
2021/07/26 11:17:02;;;;;;;5.30;2.63;;;;;;;25.90;58.36;96350.88;5039877;28;20055;-64
2021/07/26 11:19:41;;;;;;;4.85;2.45;;;;;;;25.79;59.33;96340.19;5034318;28;20041;-63
2021/07/26 11:22:16;;;;;;;7.40;3.33;;;;;;;26.04;58.37;96338.97;5029778;28;20481;-63
2021/07/26 11:24:41;;;;;;;4.72;2.40;;;;;;;25.95;57.82;96327.81;5036366;28;20049;-64
2021/07/26 11:27:08;;;;;;;5.32;2.80;;;;;;;25.78;57.88;96332.25;5036935;28;20416;-64
2021/07/26 11:29:34;;;;;;;3.97;2.80;;;;;;;25.90;57.01;96322.81;5038084;28;20041;-62